Time;durP1;ratioP1;P1;durP2;ratioP2;P2;SDS_P1;SDS_P2;PMS_P1;PMS_P2;Temp;Humidity;BMP_temperature;BMP_pressure;BME280_temperature;BME280_humidity;BME280_pressure;Samples;Min_cycle;Max_cycle;Signal;HPM_P1;HPM_P2
2022/01/05 00:02:15;;;;;;;6.28;1.42;;;0.80;99.90;;;;;;4995791;28;20049;-82
2022/01/05 00:04:41;;;;;;;6.88;1.48;;;0.70;99.90;;;;;;4997273;28;20417;-82
2022/01/05 00:07:07;;;;;;;13.43;2.42;;;0.70;99.90;;;;;;5013623;28;20519;-82
2022/01/05 00:09:33;;;;;;;6.88;1.75;;;0.70;99.90;;;;;;4996296;28;20068;-82
2022/01/05 00:11:59;;;;;;;13.40;1.67;;;1.20;99.90;;;;;;5011965;28;20042;-82
2022/01/05 00:14:25;;;;;;;11.95;2.13;;;0.80;99.90;;;;;;5013776;28;20073;-83
2022/01/05 00:16:51;;;;;;;8.18;2.03;;;1.00;99.90;;;;;;5013426;28;20145;-82
2022/01/05 00:19:16;;;;;;;5.57;1.33;;;0.80;99.90;;;;;;4994698;28;20141;-83
2022/01/05 00:21:42;;;;;;;19.40;2.75;;;1.40;99.90;;;;;;5015022;28;20071;-83
2022/01/05 00:24:08;;;;;;;12.20;2.30;;;0.80;99.90;;;;;;5010798;28;20661;-83
2022/01/05 00:26:34;;;;;;;10.48;1.65;;;1.20;99.90;;;;;;4993683;28;20050;-83
2022/01/05 00:29:00;;;;;;;12.60;2.53;;;1.40;99.90;;;;;;4994773;28;20060;-82
2022/01/05 00:31:26;;;;;;;9.05;1.88;;;0.90;99.90;;;;;;5010457;28;20049;-82
2022/01/05 00:33:53;;;;;;;12.73;1.90;;;0.90;99.90;;;;;;4978798;28;20491;-83
2022/01/05 00:36:19;;;;;;;29.55;2.38;;;0.90;99.90;;;;;;5013364;28;20041;-83
2022/01/05 00:38:45;;;;;;;10.75;1.30;;;1.70;99.90;;;;;;5014230;28;20065;-82
2022/01/05 00:41:12;;;;;;;11.90;2.33;;;1.00;99.90;;;;;;4994682;28;20046;-83
2022/01/05 00:43:38;;;;;;;11.88;1.90;;;1.00;99.90;;;;;;5011471;28;20370;-83
2022/01/05 00:46:04;;;;;;;11.85;2.10;;;1.00;99.90;;;;;;5012246;28;20054;-83
2022/01/05 00:48:32;;;;;;;12.13;1.88;;;1.00;99.90;;;;;;5012920;28;20292;-83
2022/01/05 00:51:00;;;;;;;11.85;1.90;;;1.20;99.90;;;;;;4994144;28;20053;-83
2022/01/05 00:53:26;;;;;;;12.00;1.77;;;1.00;99.90;;;;;;4978359;28;20053;-82
2022/01/05 00:55:52;;;;;;;9.77;1.88;;;1.10;99.90;;;;;;5012532;28;20125;-83
2022/01/05 00:58:18;;;;;;;12.23;1.92;;;1.10;99.90;;;;;;5012406;28;20052;-82
2022/01/05 01:00:44;;;;;;;19.38;2.75;;;1.20;99.90;;;;;;5013038;28;20156;-82
2022/01/05 01:03:09;;;;;;;16.35;3.03;;;1.30;99.90;;;;;;4995164;28;20046;-82
2022/01/05 01:05:35;;;;;;;10.98;2.25;;;1.40;99.90;;;;;;4994307;28;20064;-84
2022/01/05 01:08:01;;;;;;;11.23;1.95;;;1.50;99.90;;;;;;5011444;28;20046;-83
2022/01/05 01:10:26;;;;;;;11.70;2.45;;;1.60;99.90;;;;;;4994296;28;20049;-81
2022/01/05 01:12:52;;;;;;;17.23;2.45;;;1.60;99.90;;;;;;5012943;28;20139;-83
2022/01/05 01:15:18;;;;;;;13.90;2.28;;;1.70;99.90;;;;;;4995411;28;20058;-83
2022/01/05 01:17:44;;;;;;;8.82;1.63;;;1.80;99.90;;;;;;5012393;28;20072;-82
2022/01/05 01:20:10;;;;;;;9.95;2.08;;;1.80;99.90;;;;;;4995106;28;20412;-82
2022/01/05 01:22:36;;;;;;;12.88;2.50;;;1.80;99.90;;;;;;5013893;28;20072;-82
2022/01/05 01:25:04;;;;;;;17.05;3.10;;;1.80;99.90;;;;;;4995304;28;20050;-83
2022/01/05 01:27:29;;;;;;;19.20;4.38;;;1.70;99.90;;;;;;4978900;28;20100;-82
2022/01/05 01:29:55;;;;;;;12.77;1.83;;;1.70;99.90;;;;;;5012382;28;20458;-82
2022/01/05 01:32:21;;;;;;;17.40;2.20;;;1.80;99.90;;;;;;4995091;28;20184;-82
2022/01/05 01:34:46;;;;;;;13.85;2.08;;;1.70;99.90;;;;;;4994034;28;20050;-82
2022/01/05 01:37:12;;;;;;;11.43;2.25;;;1.70;99.90;;;;;;4977034;28;20057;-82
2022/01/05 01:39:38;;;;;;;13.38;1.95;;;1.60;99.90;;;;;;5010644;28;20050;-81
2022/01/05 01:42:04;;;;;;;11.68;3.13;;;1.70;99.90;;;;;;5011640;28;20140;-82
2022/01/05 01:44:29;;;;;;;16.45;2.20;;;1.70;99.90;;;;;;5013230;28;20062;-82
2022/01/05 01:46:55;;;;;;;16.63;3.75;;;1.60;99.90;;;;;;5011420;28;20081;-82
2022/01/05 01:49:20;;;;;;;15.93;3.33;;;1.60;99.90;;;;;;4994518;28;20054;-82
2022/01/05 01:51:46;;;;;;;18.83;2.63;;;2.20;99.90;;;;;;5014590;28;20080;-83
2022/01/05 01:54:12;;;;;;;11.15;1.70;;;1.50;99.90;;;;;;5019733;28;20069;-82
2022/01/05 01:56:39;;;;;;;9.98;2.33;;;1.50;99.90;;;;;;5010580;28;20404;-82
2022/01/05 01:59:06;;;;;;;10.27;1.92;;;1.40;99.90;;;;;;5027655;28;20120;-82
2022/01/05 02:01:32;;;;;;;13.40;2.25;;;1.40;99.90;;;;;;5002059;28;20085;-82
2022/01/05 02:03:58;;;;;;;16.98;3.15;;;1.30;99.90;;;;;;5014572;28;20092;-82
2022/01/05 02:06:23;;;;;;;17.98;2.58;;;1.30;99.90;;;;;;5014005;28;20042;-82
2022/01/05 02:08:49;;;;;;;9.95;2.25;;;1.30;99.90;;;;;;5012800;28;20096;-83
2022/01/05 02:11:15;;;;;;;11.27;3.03;;;1.30;99.90;;;;;;5011806;28;20098;-82
2022/01/05 02:13:41;;;;;;;13.10;1.92;;;1.30;99.90;;;;;;4996186;28;20104;-83
2022/01/05 02:16:07;;;;;;;9.90;2.70;;;1.30;99.90;;;;;;5014250;28;20084;-83
2022/01/05 02:21:08;;;;;;;10.05;1.67;;;1.30;99.90;;;;;;5013398;28;20065;-83
2022/01/05 02:23:35;;;;;;;19.58;3.25;;;1.30;99.90;;;;;;4995939;28;20053;-82
2022/01/05 02:26:03;;;;;;;9.90;1.65;;;1.30;99.90;;;;;;5013144;28;20071;-82
2022/01/05 02:28:29;;;;;;;20.17;3.90;;;1.30;99.90;;;;;;4981913;28;20058;-83
2022/01/05 02:30:56;;;;;;;19.83;2.63;;;1.40;99.90;;;;;;5013848;28;20138;-83
2022/01/05 02:33:22;;;;;;;11.57;1.67;;;1.40;99.90;;;;;;5014004;28;20049;-82
2022/01/05 02:35:48;;;;;;;15.88;3.47;;;1.40;99.90;;;;;;5014892;28;20609;-83
2022/01/05 02:38:21;;;;;;;12.75;3.63;;;1.90;99.90;;;;;;5012210;28;20088;-83
2022/01/05 02:40:47;;;;;;;22.00;4.53;;;1.50;99.90;;;;;;5012962;28;20038;-83
2022/01/05 02:43:13;;;;;;;17.52;2.30;;;2.20;99.90;;;;;;5011808;28;20054;-83
2022/01/05 02:45:39;;;;;;;14.02;2.10;;;1.60;99.90;;;;;;5012073;28;20058;-82
2022/01/05 02:48:05;;;;;;;10.40;2.22;;;1.60;99.90;;;;;;4993818;28;20045;-82
2022/01/05 02:50:30;;;;;;;13.02;2.17;;;1.60;99.90;;;;;;4996941;28;20050;-82
2022/01/05 02:52:56;;;;;;;17.30;2.70;;;1.70;99.90;;;;;;5017023;28;20412;-81
2022/01/05 02:55:22;;;;;;;13.70;2.33;;;1.10;99.90;;;;;;5015445;28;20491;-82
2022/01/05 02:57:47;;;;;;;22.17;2.75;;;1.70;99.90;;;;;;5016710;28;20562;-82
2022/01/05 03:00:16;;;;;;;13.77;3.17;;;1.70;99.90;;;;;;5016448;28;20042;-82
2022/01/05 03:02:42;;;;;;;11.77;2.05;;;1.70;99.90;;;;;;5016610;28;20464;-82
2022/01/05 03:05:09;;;;;;;13.15;2.67;;;1.70;99.90;;;;;;5017846;28;20443;-82
2022/01/05 03:07:39;;;;;;;19.55;2.47;;;1.70;99.90;;;;;;5017302;28;20465;-81
2022/01/05 03:10:10;;;;;;;13.73;2.30;;;1.70;99.90;;;;;;5017424;28;20049;-83
2022/01/05 03:12:38;;;;;;;14.30;3.28;;;1.70;99.90;;;;;;4999473;28;20042;-83
2022/01/05 03:15:05;;;;;;;22.85;2.33;;;1.80;99.90;;;;;;5016406;28;20053;-82
2022/01/05 03:17:31;;;;;;;10.98;2.28;;;1.90;99.90;;;;;;5016021;28;20042;-83
2022/01/05 03:19:56;;;;;;;11.45;2.30;;;2.00;99.90;;;;;;5017040;28;20072;-82
2022/01/05 03:22:22;;;;;;;7.68;1.95;;;2.10;99.90;;;;;;5016479;28;20053;-82
2022/01/05 03:24:48;;;;;;;22.77;3.30;;;2.20;99.90;;;;;;4981870;28;20057;-82
2022/01/05 03:27:13;;;;;;;11.57;2.97;;;3.10;99.90;;;;;;5011721;28;20093;-82
2022/01/05 03:29:39;;;;;;;12.63;2.00;;;2.50;99.90;;;;;;4995385;28;20129;-82
2022/01/05 03:32:05;;;;;;;13.18;2.20;;;2.50;99.90;;;;;;4996337;28;20050;-83
2022/01/05 03:34:32;;;;;;;9.50;1.90;;;2.50;99.90;;;;;;4977935;28;20054;-82
2022/01/05 03:36:59;;;;;;;22.15;4.72;;;2.50;99.90;;;;;;4976032;28;20111;-83
2022/01/05 03:39:26;;;;;;;10.23;3.15;;;2.60;99.90;;;;;;4994965;28;20054;-83
2022/01/05 03:41:51;;;;;;;13.43;2.60;;;2.70;99.90;;;;;;4976927;28;20101;-82
2022/01/05 03:44:17;;;;;;;24.85;3.20;;;2.70;99.90;;;;;;4993486;28;20137;-82
2022/01/05 03:46:43;;;;;;;17.35;2.85;;;2.70;99.90;;;;;;4993497;28;20417;-82
2022/01/05 03:49:09;;;;;;;17.70;2.28;;;2.80;99.90;;;;;;4993002;28;20053;-84
2022/01/05 03:51:34;;;;;;;15.35;2.60;;;2.70;99.90;;;;;;4979553;28;20086;-83
2022/01/05 03:54:00;;;;;;;20.08;3.38;;;2.60;99.90;;;;;;4994589;28;20042;-84
2022/01/05 03:56:25;;;;;;;13.63;3.55;;;2.60;99.90;;;;;;4978682;28;20051;-83
2022/01/05 03:58:51;;;;;;;12.27;2.88;;;2.60;99.90;;;;;;4992760;28;20042;-83
2022/01/05 04:01:17;;;;;;;10.43;2.00;;;2.60;99.90;;;;;;4991257;28;20054;-83
2022/01/05 04:03:42;;;;;;;15.95;3.33;;;2.50;99.90;;;;;;4993784;28;20390;-83
2022/01/05 04:06:08;;;;;;;13.13;2.30;;;2.50;99.90;;;;;;4960239;28;20501;-83
2022/01/05 04:08:34;;;;;;;22.75;3.30;;;2.70;99.90;;;;;;4975608;28;20050;-82
2022/01/05 04:11:00;;;;;;;14.50;2.45;;;2.40;99.90;;;;;;4976414;28;20078;-82
2022/01/05 04:13:25;;;;;;;13.18;3.10;;;2.30;99.90;;;;;;4992783;28;20153;-82
2022/01/05 04:15:51;;;;;;;17.20;3.75;;;3.00;99.90;;;;;;4991570;28;20074;-83
2022/01/05 04:18:16;;;;;;;14.48;2.10;;;2.50;99.90;;;;;;4994363;28;20045;-83
2022/01/05 04:20:42;;;;;;;9.45;3.50;;;2.60;99.90;;;;;;4993221;28;20053;-84
2022/01/05 04:23:08;;;;;;;13.85;3.05;;;2.90;99.90;;;;;;4995579;28;20390;-84
2022/01/05 04:25:33;;;;;;;19.25;2.55;;;2.90;99.90;;;;;;4977733;28;20111;-82
2022/01/05 04:28:03;;;;;;;17.25;2.85;;;3.00;99.90;;;;;;4987656;28;20057;-83
2022/01/05 04:30:29;;;;;;;16.73;2.72;;;3.20;99.90;;;;;;5014172;28;20059;-82
2022/01/05 04:32:55;;;;;;;10.80;2.90;;;3.30;99.90;;;;;;4980924;28;20132;-83
2022/01/05 04:35:20;;;;;;;13.63;2.70;;;3.30;99.90;;;;;;5014476;28;20050;-83
2022/01/05 04:37:46;;;;;;;18.38;3.88;;;3.80;99.90;;;;;;5014637;28;20492;-83
2022/01/05 04:40:12;;;;;;;13.00;2.58;;;3.40;99.90;;;;;;4997911;28;20054;-83
2022/01/05 04:42:39;;;;;;;10.25;3.25;;;3.40;99.90;;;;;;5014413;28;20050;-83
2022/01/05 04:45:06;;;;;;;14.25;2.22;;;3.40;99.90;;;;;;5015192;28;20477;-83
2022/01/05 04:47:31;;;;;;;10.18;2.92;;;3.30;99.90;;;;;;4995945;28;20058;-84
2022/01/05 04:49:57;;;;;;;13.98;2.05;;;3.30;99.90;;;;;;4994151;28;20052;-84
2022/01/05 04:52:23;;;;;;;13.13;2.08;;;3.30;99.90;;;;;;5012080;28;20049;-83
2022/01/05 04:54:48;;;;;;;6.90;1.90;;;3.20;99.90;;;;;;5012986;28;20164;-84
2022/01/05 04:57:15;;;;;;;12.15;1.67;;;3.10;99.90;;;;;;5012561;28;20077;-83
2022/01/05 04:59:40;;;;;;;12.20;1.95;;;3.20;99.90;;;;;;5011520;28;20069;-84
2022/01/05 05:02:06;;;;;;;13.82;2.03;;;3.20;99.90;;;;;;4996002;28;20046;-83
2022/01/05 05:04:32;;;;;;;9.38;1.80;;;3.30;99.90;;;;;;4995061;28;20115;-83
2022/01/05 05:06:57;;;;;;;14.77;2.13;;;3.40;99.90;;;;;;5013290;28;20511;-83
2022/01/05 05:09:23;;;;;;;17.25;2.75;;;3.40;99.90;;;;;;5014242;28;20045;-84
2022/01/05 05:11:50;;;;;;;12.82;2.13;;;3.30;99.90;;;;;;5020794;28;20054;-82
2022/01/05 05:14:16;;;;;;;8.23;2.20;;;3.20;99.90;;;;;;4989888;28;20030;-83
2022/01/05 05:16:41;;;;;;;12.73;1.95;;;3.20;99.90;;;;;;5024359;28;20042;-83
2022/01/05 05:19:07;;;;;;;13.52;2.72;;;3.10;99.90;;;;;;5002162;28;20057;-83
2022/01/05 05:21:32;;;;;;;12.25;2.00;;;3.10;99.90;;;;;;5015554;28;20052;-83
2022/01/05 05:23:58;;;;;;;10.00;2.10;;;3.10;99.90;;;;;;5016700;28;20052;-83
2022/01/05 05:26:24;;;;;;;15.77;3.50;;;3.10;99.90;;;;;;5016570;28;20054;-83
2022/01/05 05:28:50;;;;;;;10.10;1.95;;;3.10;99.90;;;;;;5000176;28;20053;-83
2022/01/05 05:31:15;;;;;;;29.13;3.65;;;3.00;99.90;;;;;;4976617;28;20086;-84
2022/01/05 05:33:41;;;;;;;11.63;1.80;;;3.10;99.90;;;;;;4993314;28;20525;-84
2022/01/05 05:36:07;;;;;;;14.70;2.55;;;3.20;99.90;;;;;;4992347;28;20102;-84
2022/01/05 05:38:33;;;;;;;13.85;4.28;;;3.20;99.90;;;;;;4993792;28;20053;-83
2022/01/05 05:40:59;;;;;;;9.05;2.28;;;3.30;99.90;;;;;;4993679;28;20050;-83
2022/01/05 05:43:25;;;;;;;12.32;2.38;;;3.40;99.90;;;;;;4993215;28;20053;-83
2022/01/05 05:45:51;;;;;;;17.58;2.47;;;3.40;99.90;;;;;;4976118;28;20038;-83
2022/01/05 05:48:17;;;;;;;13.70;2.58;;;4.40;99.90;;;;;;4974170;28;20050;-83
2022/01/05 05:50:42;;;;;;;8.73;2.88;;;3.70;99.90;;;;;;4990381;28;20054;-84
2022/01/05 05:53:08;;;;;;;16.75;2.80;;;4.20;99.90;;;;;;4991888;28;20046;-83
2022/01/05 05:55:34;;;;;;;18.70;3.08;;;3.60;99.90;;;;;;4991567;28;20549;-84
2022/01/05 05:58:00;;;;;;;20.55;3.22;;;3.60;99.90;;;;;;4991850;28;20081;-83
2022/01/05 06:00:26;;;;;;;17.45;3.13;;;3.50;99.90;;;;;;4976269;28;20540;-83
2022/01/05 06:02:52;;;;;;;20.73;4.03;;;3.60;99.90;;;;;;4993822;28;20553;-85
2022/01/05 06:05:18;;;;;;;19.88;4.68;;;3.50;99.90;;;;;;4979723;28;20054;-85
2022/01/05 06:07:43;;;;;;;19.60;3.67;;;4.10;99.90;;;;;;4991723;28;20046;-85
2022/01/05 06:10:09;;;;;;;14.65;3.20;;;3.50;99.90;;;;;;5023086;28;20057;-86
2022/01/05 06:12:35;;;;;;;20.75;2.85;;;3.50;99.90;;;;;;5021403;28;20400;-84
2022/01/05 06:15:01;;;;;;;24.27;3.75;;;3.50;99.90;;;;;;5016224;28;20057;-85
2022/01/05 06:17:26;;;;;;;12.30;2.70;;;3.60;99.90;;;;;;4994634;28;20050;-85
2022/01/05 06:19:52;;;;;;;13.07;3.13;;;3.50;99.90;;;;;;4995231;28;20129;-86
2022/01/05 06:22:18;;;;;;;16.45;2.40;;;3.50;99.90;;;;;;5012697;28;20050;-85
2022/01/05 06:24:44;;;;;;;9.73;2.65;;;3.50;99.90;;;;;;4997038;28;20088;-84
2022/01/05 06:27:11;;;;;;;12.73;2.47;;;3.50;99.90;;;;;;4999753;28;20057;-85
2022/01/05 06:29:38;;;;;;;17.17;3.10;;;3.40;99.90;;;;;;5002393;28;20141;-85
2022/01/05 06:32:05;;;;;;;15.85;2.13;;;3.50;99.90;;;;;;4983981;28;20053;-85
2022/01/05 06:34:34;;;;;;;11.75;2.63;;;3.50;99.90;;;;;;4988079;28;20435;-85
2022/01/05 06:37:03;;;;;;;18.15;2.50;;;4.20;99.90;;;;;;5026909;28;20110;-86
2022/01/05 06:39:29;;;;;;;20.55;4.10;;;3.50;99.90;;;;;;5031275;28;20092;-84
2022/01/05 06:41:55;;;;;;;20.75;2.75;;;3.10;99.90;;;;;;5008408;28;20042;-85
2022/01/05 06:44:21;;;;;;;20.05;2.47;;;3.60;99.90;;;;;;4989500;28;20057;-85
2022/01/05 06:46:46;;;;;;;12.65;2.47;;;3.60;99.90;;;;;;5004757;28;20056;-84
2022/01/05 06:49:12;;;;;;;15.73;2.20;;;3.70;99.90;;;;;;5010901;28;20058;-84
2022/01/05 06:51:38;;;;;;;13.77;3.03;;;4.30;99.90;;;;;;5032311;28;20113;-85
2022/01/05 06:54:03;;;;;;;13.18;1.85;;;3.70;99.90;;;;;;5014584;28;20033;-84
2022/01/05 06:56:29;;;;;;;16.13;3.15;;;4.20;99.90;;;;;;5008720;28;20045;-85
2022/01/05 06:58:55;;;;;;;15.35;2.97;;;3.80;99.90;;;;;;5006420;28;20049;-85
2022/01/05 07:01:20;;;;;;;16.92;3.13;;;3.80;99.90;;;;;;5005109;28;20057;-84
2022/01/05 07:03:46;;;;;;;19.33;2.45;;;3.80;99.90;;;;;;5024663;28;20046;-84
2022/01/05 07:06:11;;;;;;;18.58;2.28;;;3.80;99.90;;;;;;4989554;28;20053;-85
2022/01/05 07:08:37;;;;;;;12.75;3.08;;;3.80;99.90;;;;;;5025710;28;20053;-84
2022/01/05 07:11:03;;;;;;;15.45;2.25;;;3.90;99.90;;;;;;4992484;28;20057;-84
2022/01/05 07:13:29;;;;;;;27.92;5.57;;;3.90;99.90;;;;;;5009821;28;20504;-83
2022/01/05 07:15:54;;;;;;;13.10;2.45;;;4.00;99.90;;;;;;5026742;28;20082;-84
2022/01/05 07:18:20;;;;;;;11.52;1.63;;;3.90;99.90;;;;;;5006333;28;20080;-85
2022/01/05 07:20:46;;;;;;;17.88;2.55;;;5.00;99.90;;;;;;4988613;28;20101;-85
2022/01/05 07:23:12;;;;;;;12.88;3.10;;;3.90;99.90;;;;;;4987892;28;20108;-85
2022/01/05 07:25:37;;;;;;;14.20;2.05;;;4.00;99.90;;;;;;4983418;28;20611;-85
2022/01/05 07:28:03;;;;;;;8.18;1.10;;;3.90;99.90;;;;;;5016717;28;20176;-84
2022/01/05 07:30:29;;;;;;;9.43;1.15;;;3.90;99.90;;;;;;4983785;28;20049;-85
2022/01/05 07:32:55;;;;;;;16.95;1.52;;;3.90;99.90;;;;;;4986698;28;20076;-84
2022/01/05 07:35:20;;;;;;;11.02;1.58;;;3.90;99.90;;;;;;4984805;28;20042;-85
2022/01/05 07:37:46;;;;;;;7.47;1.60;;;4.20;99.90;;;;;;4999235;28;20050;-85
2022/01/05 07:40:12;;;;;;;12.63;1.77;;;4.10;99.90;;;;;;5000436;28;20054;-85
2022/01/05 07:42:38;;;;;;;12.52;2.33;;;3.90;99.90;;;;;;4984080;28;20092;-85
2022/01/05 07:45:06;;;;;;;17.98;2.72;;;4.00;99.90;;;;;;4983405;28;20121;-85
2022/01/05 07:47:32;;;;;;;10.57;1.58;;;3.80;99.90;;;;;;4998824;28;20058;-85
2022/01/05 07:49:58;;;;;;;17.33;1.92;;;3.90;99.90;;;;;;4997061;28;20049;-86
2022/01/05 07:52:24;;;;;;;14.02;2.30;;;3.90;99.90;;;;;;4996625;28;20049;-85
2022/01/05 07:54:52;;;;;;;11.93;2.20;;;4.30;99.90;;;;;;4979976;28;20053;-85
2022/01/05 07:57:18;;;;;;;13.02;1.75;;;4.20;99.90;;;;;;4980126;28;20077;-85
2022/01/05 07:59:44;;;;;;;9.50;1.50;;;4.10;99.90;;;;;;4996962;28;20062;-85
2022/01/05 08:02:10;;;;;;;15.15;1.63;;;4.00;99.90;;;;;;4997963;28;20058;-85
2022/01/05 08:04:36;;;;;;;11.57;1.98;;;3.80;99.90;;;;;;4981194;28;20037;-85
2022/01/05 08:07:02;;;;;;;14.98;2.53;;;3.80;99.90;;;;;;4979784;28;20105;-84
2022/01/05 08:09:29;;;;;;;17.10;1.55;;;4.20;99.90;;;;;;4980687;28;20053;-84
2022/01/05 08:11:56;;;;;;;19.73;2.65;;;4.30;99.90;;;;;;5000683;28;20088;-85
2022/01/05 08:14:22;;;;;;;15.93;2.92;;;4.40;99.90;;;;;;4999489;28;20061;-85
2022/01/05 08:16:47;;;;;;;10.98;2.75;;;5.00;99.90;;;;;;4980784;28;20354;-85
2022/01/05 08:19:13;;;;;;;15.20;2.35;;;4.50;99.90;;;;;;4979291;28;20141;-85
2022/01/05 08:21:39;;;;;;;9.55;2.10;;;4.50;99.90;;;;;;4979523;28;20042;-85
2022/01/05 08:24:05;;;;;;;9.32;2.88;;;5.00;99.90;;;;;;4978757;28;20057;-86
2022/01/05 08:26:34;;;;;;;9.50;2.75;;;4.50;99.90;;;;;;4994507;28;20054;-86
2022/01/05 08:28:59;;;;;;;17.75;3.42;;;4.20;99.90;;;;;;4994145;28;20144;-85
2022/01/05 08:31:28;;;;;;;5.75;1.08;;;4.50;99.90;;;;;;4999888;28;20104;-86
2022/01/05 08:33:56;;;;;;;7.85;1.23;;;4.50;99.90;;;;;;5001844;28;20140;-85
2022/01/05 08:36:23;;;;;;;17.10;2.63;;;3.80;99.90;;;;;;5017730;28;20045;-85
2022/01/05 08:38:49;;;;;;;11.80;1.52;;;4.90;99.90;;;;;;4992363;28;20120;-85
2022/01/05 08:41:18;;;;;;;13.75;1.88;;;4.50;99.90;;;;;;4989329;28;20049;-86
2022/01/05 08:43:43;;;;;;;5.45;1.92;;;4.30;99.90;;;;;;5006569;28;20061;-86
2022/01/05 08:46:09;;;;;;;15.50;1.73;;;5.20;99.90;;;;;;5007754;28;20137;-85
2022/01/05 08:48:36;;;;;;;10.63;1.73;;;5.30;99.90;;;;;;4996427;28;20119;-85
2022/01/05 08:51:02;;;;;;;14.55;1.95;;;4.50;99.90;;;;;;4981411;28;20054;-85
2022/01/05 08:53:28;;;;;;;13.02;3.30;;;5.20;99.90;;;;;;4999645;28;20049;-85
2022/01/05 08:55:54;;;;;;;8.40;1.40;;;4.60;99.90;;;;;;4984966;28;20049;-85
2022/01/05 08:58:20;;;;;;;21.40;3.00;;;4.90;99.90;;;;;;4983612;28;20081;-85
2022/01/05 09:00:48;;;;;;;22.83;2.47;;;4.70;99.90;;;;;;4980335;28;20436;-85
2022/01/05 09:03:15;;;;;;;15.00;2.28;;;4.50;99.90;;;;;;4997388;28;20042;-86
2022/01/05 09:05:40;;;;;;;14.55;2.35;;;4.60;99.90;;;;;;4999105;28;20446;-86
2022/01/05 09:08:06;;;;;;;15.05;2.05;;;4.90;99.90;;;;;;4997856;28;20050;-85
2022/01/05 09:10:33;;;;;;;20.20;4.13;;;5.00;99.90;;;;;;5016422;28;20057;-85
2022/01/05 09:12:59;;;;;;;16.42;2.28;;;5.10;99.90;;;;;;4983824;28;20124;-86
2022/01/05 09:15:25;;;;;;;10.18;1.95;;;4.90;99.90;;;;;;5002478;28;20128;-85
2022/01/05 09:17:51;;;;;;;17.92;3.25;;;5.50;99.90;;;;;;5001699;28;20046;-85
2022/01/05 09:20:17;;;;;;;12.93;2.20;;;5.70;99.90;;;;;;5000396;28;20082;-85
2022/01/05 09:22:43;;;;;;;23.80;2.83;;;5.80;99.90;;;;;;5002823;28;20105;-85
2022/01/05 09:25:11;;;;;;;24.42;3.42;;;5.70;99.90;;;;;;4985200;28;20054;-85
2022/01/05 09:27:38;;;;;;;16.45;1.85;;;4.60;99.90;;;;;;5017695;28;20129;-85
2022/01/05 09:30:07;;;;;;;15.23;2.53;;;4.60;99.90;;;;;;4985664;28;20066;-85
2022/01/05 09:32:35;;;;;;;11.18;2.35;;;4.50;99.90;;;;;;4983811;28;20512;-85
2022/01/05 09:35:01;;;;;;;11.10;2.35;;;5.00;99.90;;;;;;4967829;28;20578;-84
2022/01/05 09:37:32;;;;;;;17.73;2.10;;;4.90;99.90;;;;;;4983846;28;20522;-85
2022/01/05 09:42:42;;;;;;;12.50;2.13;;;4.40;99.90;;;;;;5001566;28;20054;-85
2022/01/05 09:45:14;;;;;;;8.27;1.75;;;4.50;99.90;;;;;;4983203;28;20096;-85
2022/01/05 09:48:10;;;;;;;11.82;2.08;;;4.60;99.90;;;;;;4983114;28;20133;-85
2022/01/05 09:50:39;;;;;;;11.25;2.58;;;4.70;99.90;;;;;;4974980;28;20057;-85
2022/01/05 09:53:05;;;;;;;12.15;3.13;;;5.00;99.90;;;;;;4999917;28;20037;-85
2022/01/05 09:55:31;;;;;;;13.05;2.92;;;5.00;99.90;;;;;;4989658;28;20038;-85
2022/01/05 09:57:57;;;;;;;16.73;3.28;;;5.10;99.90;;;;;;4983446;28;20089;-85
2022/01/05 10:00:23;;;;;;;15.90;2.15;;;5.10;99.90;;;;;;5004062;28;20038;-85
2022/01/05 10:02:50;;;;;;;17.75;3.00;;;5.10;99.90;;;;;;4973409;28;20081;-85
2022/01/05 10:05:16;;;;;;;21.75;2.45;;;5.20;99.90;;;;;;4985426;28;20464;-85
2022/01/05 10:07:43;;;;;;;13.38;3.30;;;5.20;99.90;;;;;;4985476;28;20050;-85
2022/01/05 10:10:10;;;;;;;15.52;3.53;;;5.30;99.90;;;;;;4984600;28;20046;-84
2022/01/05 10:12:35;;;;;;;17.23;2.35;;;5.30;99.90;;;;;;4987171;28;20384;-84
2022/01/05 10:15:02;;;;;;;21.23;2.22;;;6.40;99.90;;;;;;4971747;28;20048;-84
2022/01/05 10:17:30;;;;;;;21.98;4.40;;;5.40;99.90;;;;;;4985954;28;20058;-85
2022/01/05 10:20:05;;;;;;;18.45;2.55;;;5.40;99.90;;;;;;4986322;28;20052;-84
2022/01/05 10:22:42;;;;;;;21.17;3.45;;;5.40;99.90;;;;;;4987156;28;20042;-85
2022/01/05 10:25:15;;;;;;;16.10;3.03;;;5.60;99.90;;;;;;5003158;28;20053;-85
2022/01/05 10:27:41;;;;;;;22.52;4.40;;;6.80;99.90;;;;;;4989096;28;20069;-85
2022/01/05 10:30:12;;;;;;;17.58;2.40;;;5.80;99.90;;;;;;5004085;28;20465;-85
2022/01/05 10:32:38;;;;;;;15.63;2.67;;;6.50;99.90;;;;;;5003081;28;20041;-84
2022/01/05 10:35:08;;;;;;;18.50;4.82;;;5.80;99.90;;;;;;5004813;28;20108;-84
2022/01/05 10:37:35;;;;;;;12.65;2.63;;;5.80;99.90;;;;;;5007526;28;20038;-85
2022/01/05 10:40:04;;;;;;;17.33;2.38;;;5.80;99.90;;;;;;5011257;28;20046;-85
2022/01/05 10:42:32;;;;;;;22.80;4.20;;;5.80;99.90;;;;;;5024309;28;20077;-84
2022/01/05 10:44:58;;;;;;;17.98;2.10;;;5.80;99.90;;;;;;5020467;28;20054;-85
2022/01/05 10:47:25;;;;;;;16.70;2.83;;;5.80;99.90;;;;;;5003082;28;20064;-85
2022/01/05 10:49:51;;;;;;;17.77;2.90;;;5.90;99.90;;;;;;5003124;28;20053;-85
2022/01/05 10:52:29;;;;;;;28.77;3.15;;;6.20;99.90;;;;;;5003973;28;20056;-85
2022/01/05 10:55:10;;;;;;;13.57;3.03;;;5.90;99.90;;;;;;5007109;28;20050;-85
2022/01/05 10:57:36;;;;;;;29.00;2.65;;;5.90;99.90;;;;;;5022401;28;20042;-85
2022/01/05 11:00:06;;;;;;;19.80;2.75;;;6.10;99.90;;;;;;5003085;28;20114;-85
2022/01/05 11:02:34;;;;;;;21.27;4.03;;;6.30;99.90;;;;;;4989694;28;20109;-84
2022/01/05 11:05:09;;;;;;;20.00;3.15;;;6.40;99.90;;;;;;4988246;28;20057;-84
2022/01/05 11:07:39;;;;;;;12.60;2.92;;;6.40;99.90;;;;;;5003184;28;20053;-85
2022/01/05 11:10:09;;;;;;;15.52;2.90;;;6.30;99.90;;;;;;5020986;28;20064;-84
2022/01/05 11:12:40;;;;;;;25.70;3.83;;;6.50;99.90;;;;;;5022553;28;20060;-85
2022/01/05 11:15:19;;;;;;;17.27;2.88;;;6.60;99.90;;;;;;4991854;28;20041;-85
2022/01/05 11:18:09;;;;;;;23.05;4.45;;;6.60;99.90;;;;;;5032350;28;20065;-84
2022/01/05 11:20:42;;;;;;;29.60;3.80;;;6.70;99.90;;;;;;5014229;28;20072;-84
2022/01/05 11:23:08;;;;;;;19.92;3.58;;;6.70;99.90;;;;;;5025370;28;20078;-85
2022/01/05 11:25:39;;;;;;;20.60;5.18;;;6.70;99.90;;;;;;5005165;28;20135;-84
2022/01/05 11:28:06;;;;;;;25.52;4.70;;;7.50;99.90;;;;;;5015928;28;20046;-85
2022/01/05 11:30:33;;;;;;;41.92;6.93;;;6.80;99.90;;;;;;5003327;28;20505;-85
2022/01/05 11:33:00;;;;;;;18.58;3.00;;;6.80;99.90;;;;;;5002770;28;20050;-84
2022/01/05 11:35:26;;;;;;;20.90;4.60;;;6.80;99.90;;;;;;5001201;28;20059;-85
2022/01/05 11:37:52;;;;;;;19.35;3.25;;;6.90;99.90;;;;;;5000313;28;20102;-85
2022/01/05 11:40:18;;;;;;;20.98;3.20;;;6.90;99.90;;;;;;4999189;28;20751;-84
2022/01/05 11:42:48;;;;;;;11.68;3.78;;;7.10;99.90;;;;;;4983045;28;20097;-84
2022/01/05 11:45:27;;;;;;;21.98;3.58;;;7.30;99.90;;;;;;5001479;28;20584;-85
2022/01/05 11:48:30;;;;;;;23.85;3.60;;;7.40;99.90;;;;;;5001879;28;20050;-85
2022/01/05 11:50:58;;;;;;;21.25;3.38;;;7.30;99.90;;;;;;4997681;28;20053;-85
2022/01/05 11:53:39;;;;;;;26.05;4.03;;;7.30;99.90;;;;;;4998529;28;20054;-85
2022/01/05 11:56:12;;;;;;;22.58;4.70;;;7.30;99.90;;;;;;4998628;28;20050;-85
2022/01/05 11:58:59;;;;;;;18.88;3.85;;;7.40;99.90;;;;;;4998380;28;20390;-85
2022/01/05 12:01:28;;;;;;;22.25;4.50;;;7.40;99.90;;;;;;4980384;28;20145;-85
2022/01/05 12:03:57;;;;;;;23.75;3.90;;;7.50;99.90;;;;;;4996839;28;20125;-84
2022/01/05 12:06:31;;;;;;;31.02;5.88;;;7.50;99.90;;;;;;4997112;28;20106;-85
2022/01/05 12:08:59;;;;;;;19.95;4.97;;;7.60;99.90;;;;;;4997342;28;20049;-84
2022/01/05 12:11:38;;;;;;;27.33;4.63;;;7.60;99.90;;;;;;4995305;28;20502;-86
2022/01/05 12:14:05;;;;;;;25.60;4.00;;;7.50;99.90;;;;;;4998269;28;20350;-84
2022/01/05 12:16:59;;;;;;;17.55;3.67;;;7.40;99.90;;;;;;4995837;28;20046;-84
2022/01/05 12:19:30;;;;;;;16.23;2.83;;;7.40;99.90;;;;;;4996777;28;20053;-85
2022/01/05 12:21:58;;;;;;;17.90;2.38;;;7.50;99.90;;;;;;4996014;28;20050;-85
2022/01/05 12:25:03;;;;;;;19.52;4.32;;;7.50;99.90;;;;;;4975681;28;20058;-84
2022/01/05 12:27:50;;;;;;;21.40;3.72;;;7.50;99.90;;;;;;4979612;28;20089;-85
2022/01/05 12:30:16;;;;;;;23.30;3.60;;;7.60;99.90;;;;;;4993410;28;20137;-84
2022/01/05 12:32:44;;;;;;;22.25;3.47;;;7.80;99.90;;;;;;4976691;28;20090;-85
2022/01/05 12:35:19;;;;;;;29.77;4.22;;;7.90;99.90;;;;;;4994275;28;20397;-85
2022/01/05 12:37:55;;;;;;;19.17;4.38;;;7.90;99.90;;;;;;4994392;28;20077;-85
2022/01/05 12:40:22;;;;;;;26.73;3.00;;;7.90;99.90;;;;;;4993617;28;20058;-85
2022/01/05 12:42:48;;;;;;;16.42;3.28;;;7.70;99.90;;;;;;4992793;28;20512;-85
2022/01/05 12:45:57;;;;;;;16.90;2.80;;;7.50;99.90;;;;;;4959894;28;20053;-85
2022/01/05 12:48:32;;;;;;;11.70;2.28;;;7.40;99.90;;;;;;4977851;28;20142;-85
2022/01/05 12:51:22;;;;;;;23.23;2.97;;;7.30;99.90;;;;;;4977403;28;20125;-85
2022/01/05 12:54:01;;;;;;;20.70;3.53;;;7.20;99.90;;;;;;4976743;28;20452;-84
2022/01/05 12:56:33;;;;;;;16.23;3.70;;;7.30;99.90;;;;;;4995142;28;20058;-85